Time;durP1;ratioP1;P1;durP2;ratioP2;P2;SDS_P1;SDS_P2;PMS_P1;PMS_P2;Temp;Humidity;BMP_temperature;BMP_pressure;BME280_temperature;BME280_humidity;BME280_pressure;Samples;Min_cycle;Max_cycle;Signal;HPM_P1;HPM_P2
2021/05/21 00:01:31;;;;;;;;;;;;;;;15.80;51.23;99200.06;5112963;28;19947;-37
2021/05/21 00:03:57;;;;;;;;;;;;;;;15.61;51.74;99203.06;5112962;28;19912;-37
2021/05/21 00:06:22;;;;;;;;;;;;;;;15.83;50.70;99202.25;5094788;28;20368;-37
2021/05/21 00:08:47;;;;;;;;;;;;;;;15.60;51.49;99206.78;5092856;28;19919;-37
2021/05/21 00:11:12;;;;;;;;;;;;;;;16.02;50.73;99210.78;5092784;28;19981;-37
2021/05/21 00:13:38;;;;;;;;;;;;;;;15.77;50.70;99203.25;5092749;28;19924;-37
2021/05/21 00:16:03;;;;;;;;;;;;;;;15.72;51.47;99211.22;5092950;28;20240;-37
2021/05/21 00:18:28;;;;;;;;;;;;;;;15.51;51.20;99218.19;5092798;28;19913;-37
2021/05/21 00:20:54;;;;;;;;;;;;;;;15.40;51.77;99219.91;5092683;28;20368;-37
2021/05/21 00:23:19;;;;;;;;;;;;;;;15.55;51.13;99217.44;5092536;28;19985;-37
2021/05/21 00:25:44;;;;;;;;;;;;;;;15.52;50.87;99206.41;5092739;28;20257;-37
2021/05/21 00:28:10;;;;;;;;;;;;;;;15.28;52.16;99209.31;5092674;28;20051;-37
2021/05/21 00:30:35;;;;;;;;;;;;;;;15.34;51.97;99210.19;5092337;28;19912;-37
2021/05/21 00:33:00;;;;;;;;;;;;;;;15.18;52.85;99211.88;5092404;28;19912;-36
2021/05/21 00:35:25;;;;;;;;;;;;;;;15.08;53.00;99215.22;5091610;28;19923;-37
2021/05/21 00:37:51;;;;;;;;;;;;;;;15.34;52.35;99208.31;5092392;28;20022;-37
2021/05/21 00:40:16;;;;;;;;;;;;;;;15.23;52.77;99210.06;5092799;28;19912;-38
2021/05/21 00:42:41;;;;;;;;;;;;;;;15.42;52.45;99199.03;5092689;28;19915;-37
2021/05/21 00:45:07;;;;;;;;;;;;;;;15.43;53.13;99214.06;5092351;28;20224;-37
2021/05/21 00:47:32;;;;;;;;;;;;;;;15.39;54.47;99204.91;5092760;28;19922;-37
2021/05/21 00:49:57;;;;;;;;;;;;;;;14.66;58.24;99211.09;5092091;28;20392;-37
2021/05/21 00:52:23;;;;;;;;;;;;;;;14.62;58.73;99209.13;5092369;28;19908;-37
2021/05/21 00:54:48;;;;;;;;;;;;;;;14.63;59.34;99206.19;5091990;28;20403;-37
2021/05/21 00:57:14;;;;;;;;;;;;;;;14.36;60.38;99207.88;5090719;28;19916;-37
2021/05/21 00:59:39;;;;;;;;;;;;;;;14.65;59.40;99208.66;5092116;28;19947;-37
2021/05/21 01:02:05;;;;;;;;;;;;;;;14.81;59.01;99207.84;5092079;28;19994;-37
2021/05/21 01:04:30;;;;;;;;;;;;;;;14.79;58.58;99209.13;5091712;28;19993;-37
2021/05/21 01:06:55;;;;;;;;;;;;;;;14.74;58.87;99214.41;5091954;28;19951;-38
2021/05/21 01:09:21;;;;;;;;;;;;;;;14.56;60.09;99221.56;5091872;28;20315;-37
2021/05/21 01:11:46;;;;;;;;;;;;;;;14.80;59.16;99222.28;5092347;28;19916;-37
2021/05/21 01:14:11;;;;;;;;;;;;;;;14.84;58.75;99230.66;5091634;28;20295;-37
2021/05/21 01:16:37;;;;;;;;;;;;;;;14.95;58.52;99224.38;5091742;28;19920;-37
2021/05/21 01:19:04;;;;;;;;;;;;;;;14.81;59.39;99226.59;5091906;28;19973;-38
2021/05/21 01:21:32;;;;;;;;;;;;;;;14.73;60.71;99228.84;5091617;28;20004;-37
2021/05/21 01:23:58;;;;;;;;;;;;;;;14.80;59.93;99230.31;5091602;28;20447;-38
2021/05/21 01:26:24;;;;;;;;;;;;;;;14.90;60.01;99235.03;5091822;28;19995;-38
2021/05/21 01:28:49;;;;;;;;;;;;;;;14.65;62.23;99233.56;5090214;28;19961;-39
2021/05/21 01:31:14;;;;;;;;;;;;;;;15.18;59.51;99231.44;5091602;28;19950;-39
2021/05/21 01:33:41;;;;;;;;;;;;;;;14.93;60.76;99231.88;5091574;28;20307;-37
2021/05/21 01:36:06;;;;;;;;;;;;;;;14.94;61.10;99230.78;5091234;28;20532;-38
2021/05/21 01:38:31;;;;;;;;;;;;;;;14.62;62.34;99226.03;5091513;28;19946;-39
2021/05/21 01:40:57;;;;;;;;;;;;;;;14.72;61.48;99229.94;5090009;28;19919;-39
2021/05/21 01:43:22;;;;;;;;;;;;;;;14.37;63.04;99226.34;5091145;28;19912;-38
2021/05/21 01:45:48;;;;;;;;;;;;;;;14.88;61.47;99225.63;5089291;28;20395;-38
2021/05/21 01:48:13;;;;;;;;;;;;;;;14.99;61.23;99222.03;5091269;28;19919;-37
2021/05/21 01:50:38;;;;;;;;;;;;;;;15.32;60.63;99212.31;5091366;28;19915;-39
2021/05/21 01:53:04;;;;;;;;;;;;;;;15.44;59.65;99216.50;5091454;28;19919;-39
2021/05/21 01:55:29;;;;;;;;;;;;;;;15.47;60.16;99206.34;5090916;28;19973;-39
2021/05/21 01:57:54;;;;;;;;;;;;;;;15.57;59.45;99209.97;5091095;28;19916;-37
2021/05/21 02:00:20;;;;;;;;;;;;;;;15.57;60.59;99196.56;5091045;28;20244;-38
2021/05/21 02:02:45;;;;;;;;;;;;;;;15.58;59.50;99187.44;5090846;28;19919;-38
2021/05/21 02:05:11;;;;;;;;;;;;;;;15.66;60.13;99193.44;5090716;28;19916;-38
2021/05/21 02:07:36;;;;;;;;;;;;;;;15.84;59.80;99193.16;5090925;28;19912;-37
2021/05/21 02:10:05;;;;;;;;;;;;;;;16.03;58.17;99199.00;5090518;28;20415;-37
2021/05/21 02:12:31;;;;;;;;;;;;;;;16.21;57.71;99198.63;5091270;28;19920;-37
2021/05/21 02:14:57;;;;;;;;;;;;;;;16.31;57.54;99205.97;5090574;28;19938;-37
2021/05/21 02:17:23;;;;;;;;;;;;;;;16.45;56.97;99203.69;5090894;28;20315;-37
2021/05/21 02:19:48;;;;;;;;;;;;;;;16.70;57.34;99213.03;5091208;28;19912;-37
2021/05/21 02:22:17;;;;;;;;;;;;;;;16.73;56.15;99216.00;5090923;28;19912;-37
2021/05/21 02:24:43;;;;;;;;;;;;;;;16.34;56.98;99213.53;5091154;28;20004;-37
2021/05/21 02:27:08;;;;;;;;;;;;;;;15.90;58.39;99218.97;5090881;28;20002;-37
2021/05/21 02:29:33;;;;;;;;;;;;;;;15.41;58.52;99214.31;5091001;28;19912;-38
2021/05/21 02:31:58;;;;;;;;;;;;;;;15.55;58.83;99225.47;5091141;28;19912;-36
2021/05/21 02:34:24;;;;;;;;;;;;;;;15.75;58.55;99216.13;5090616;28;19961;-38
2021/05/21 02:36:49;;;;;;;;;;;;;;;15.60;60.20;99219.38;5090515;28;19920;-38
2021/05/21 02:39:14;;;;;;;;;;;;;;;15.76;58.58;99225.78;5090910;28;19912;-38
2021/05/21 02:41:40;;;;;;;;;;;;;;;15.90;58.87;99226.22;5090800;28;19972;-38
2021/05/21 02:44:05;;;;;;;;;;;;;;;15.98;57.95;99223.88;5090821;28;19965;-36
2021/05/21 02:46:30;;;;;;;;;;;;;;;15.89;58.33;99233.44;5090958;28;19912;-37
2021/05/21 02:48:56;;;;;;;;;;;;;;;15.52;59.32;99234.03;5090648;28;19912;-37
2021/05/21 02:51:21;;;;;;;;;;;;;;;15.10;60.96;99239.88;5090757;28;19961;-37
2021/05/21 02:53:46;;;;;;;;;;;;;;;14.73;61.65;99234.22;5090525;28;19916;-37
2021/05/21 02:56:11;;;;;;;;;;;;;;;15.19;60.74;99235.75;5090628;28;19974;-37
2021/05/21 02:58:37;;;;;;;;;;;;;;;14.98;60.74;99233.78;5092701;28;20381;-37
2021/05/21 03:01:02;;;;;;;;;;;;;;;15.17;60.48;99235.19;5093277;28;19913;-37
2021/05/21 03:03:27;;;;;;;;;;;;;;;15.18;61.01;99234.09;5094109;28;19942;-38
2021/05/21 03:05:55;;;;;;;;;;;;;;;15.46;59.35;99237.72;5094025;28;20316;-38
2021/05/21 03:08:20;;;;;;;;;;;;;;;15.17;59.95;99237.84;5093797;28;19952;-38
2021/05/21 03:10:45;;;;;;;;;;;;;;;14.68;61.83;99242.97;5094349;28;19950;-38
2021/05/21 03:13:11;;;;;;;;;;;;;;;14.79;62.45;99244.78;5094401;28;20376;-38
2021/05/21 03:15:36;;;;;;;;;;;;;;;15.35;60.41;99252.84;5093863;28;20300;-37
2021/05/21 03:18:02;;;;;;;;;;;;;;;15.24;60.32;99251.88;5094001;28;19920;-38
2021/05/21 03:20:28;;;;;;;;;;;;;;;15.17;61.24;99245.91;5093993;28;19935;-37
2021/05/21 03:22:53;;;;;;;;;;;;;;;15.56;59.42;99240.53;5098915;28;20368;-37
2021/05/21 03:25:18;;;;;;;;;;;;;;;15.70;58.78;99249.00;5113700;28;20006;-37
2021/05/21 03:27:44;;;;;;;;;;;;;;;15.77;58.91;99246.19;5113417;28;20068;-37
2021/05/21 03:30:09;;;;;;;;;;;;;;;15.19;59.80;99242.94;5113382;28;19912;-37
2021/05/21 03:32:35;;;;;;;;;;;;;;;14.97;60.56;99242.91;5113547;28;19912;-37
2021/05/21 03:35:00;;;;;;;;;;;;;;;15.37;59.97;99256.09;5113179;28;19950;-38
2021/05/21 03:37:25;;;;;;;;;;;;;;;15.07;61.14;99251.09;5111820;28;20025;-38
2021/05/21 03:39:51;;;;;;;;;;;;;;;15.15;60.73;99249.88;5112010;28;19916;-37
2021/05/21 03:42:17;;;;;;;;;;;;;;;14.79;61.66;99243.94;5112928;28;20295;-38
2021/05/21 03:44:42;;;;;;;;;;;;;;;14.47;62.82;99242.59;5113285;28;19911;-38
2021/05/21 03:47:07;;;;;;;;;;;;;;;15.26;61.14;99243.59;5112972;28;20364;-37
2021/05/21 03:49:32;;;;;;;;;;;;;;;15.19;60.97;99254.50;5112847;28;19918;-37
2021/05/21 03:52:01;;;;;;;;;;;;;;;15.20;60.78;99252.63;5113095;28;19961;-37
2021/05/21 03:54:26;;;;;;;;;;;;;;;15.17;61.02;99271.88;5111574;28;19951;-37
2021/05/21 03:56:51;;;;;;;;;;;;;;;15.38;60.08;99283.69;5112573;28;20391;-37
2021/05/21 03:59:17;;;;;;;;;;;;;;;15.28;60.48;99297.78;5112770;28;19912;-38
2021/05/21 04:01:43;;;;;;;;;;;;;;;15.21;60.68;99306.00;5112649;28;19912;-37
2021/05/21 04:04:08;;;;;;;;;;;;;;;15.18;60.33;99306.47;5113342;28;19912;-37
2021/05/21 04:06:33;;;;;;;;;;;;;;;14.98;60.90;99306.97;5092759;28;20337;-36
2021/05/21 04:08:59;;;;;;;;;;;;;;;15.07;61.50;99303.88;5091185;28;19931;-36
2021/05/21 04:11:24;;;;;;;;;;;;;;;15.28;59.95;99305.00;5092201;28;19919;-37
2021/05/21 04:13:50;;;;;;;;;;;;;;;15.00;60.19;99306.69;5091937;28;20425;-36
2021/05/21 04:16:15;;;;;;;;;;;;;;;14.89;60.55;99311.09;5092037;28;19923;-37
2021/05/21 04:18:40;;;;;;;;;;;;;;;14.64;60.94;99306.91;5092221;28;19916;-37
2021/05/21 04:21:06;;;;;;;;;;;;;;;16.11;61.62;99311.25;5088223;28;19916;-37
2021/05/21 04:23:31;;;;;;;;;;;;;;;16.03;56.41;99307.16;5102827;28;19912;-37
2021/05/21 04:25:57;;;;;;;;;;;;;;;15.44;57.47;99323.75;5112133;28;19911;-38
2021/05/21 04:28:22;;;;;;;;;;;;;;;15.12;58.84;99328.88;5112148;28;20228;-37
2021/05/21 04:30:47;;;;;;;;;;;;;;;15.47;57.99;99332.38;5111801;28;19922;-37
2021/05/21 04:33:13;;;;;;;;;;;;;;;15.72;57.73;99337.28;5110762;28;19934;-37
2021/05/21 04:35:38;;;;;;;;;;;;;;;15.08;58.50;99335.78;5093864;28;19985;-37
2021/05/21 04:38:03;;;;;;;;;;;;;;;15.18;58.21;99346.66;5079041;28;19913;-38
2021/05/21 04:40:28;;;;;;;;;;;;;;;15.05;58.51;99345.13;5090682;28;19919;-37
2021/05/21 04:42:54;;;;;;;;;;;;;;;15.07;58.45;99347.56;5084820;28;20431;-37
2021/05/21 04:45:19;;;;;;;;;;;;;;;14.85;58.59;99345.59;5071817;28;20312;-37
2021/05/21 04:47:44;;;;;;;;;;;;;;;14.71;59.41;99346.94;5090333;28;19919;-37
2021/05/21 04:50:10;;;;;;;;;;;;;;;14.98;59.24;99355.19;5091962;28;19939;-37
2021/05/21 04:52:35;;;;;;;;;;;;;;;15.21;57.89;99356.09;5091937;28;19920;-37
2021/05/21 04:55:00;;;;;;;;;;;;;;;15.04;58.49;99354.22;5091138;28;20288;-37
2021/05/21 04:57:26;;;;;;;;;;;;;;;15.00;58.56;99355.75;5091045;28;19955;-37
2021/05/21 04:59:51;;;;;;;;;;;;;;;15.17;58.30;99353.09;5091335;28;19944;-37
2021/05/21 05:02:16;;;;;;;;;;;;;;;15.04;58.43;99359.59;5089869;28;19924;-37
2021/05/21 05:04:42;;;;;;;;;;;;;;;14.88;59.33;99356.88;5091002;28;19919;-38
2021/05/21 05:07:07;;;;;;;;;;;;;;;15.17;58.01;99363.81;5090845;28;19995;-38
2021/05/21 05:09:32;;;;;;;;;;;;;;;15.04;58.28;99359.59;5090760;28;19912;-38
2021/05/21 05:11:59;;;;;;;;;;;;;;;15.30;58.40;99356.50;5090857;28;19920;-37
2021/05/21 05:14:24;;;;;;;;;;;;;;;15.61;57.54;99360.44;5090482;28;20259;-37
2021/05/21 05:16:50;;;;;;;;;;;;;;;15.85;56.17;99362.97;5090367;28;20389;-38
2021/05/21 05:19:15;;;;;;;;;;;;;;;15.95;55.77;99350.50;5090866;28;19912;-37
2021/05/21 05:21:41;;;;;;;;;;;;;;;15.57;56.77;99349.44;5090748;28;19920;-38
2021/05/21 05:24:16;;;;;;;;;;;;;;;16.05;54.97;99354.38;5090004;28;19947;-38
2021/05/21 05:26:42;;;;;;;;;;;;;;;16.14;56.46;99342.97;5090503;28;19919;-38
2021/05/21 05:29:07;;;;;;;;;;;;;;;16.13;54.80;99354.78;5090619;28;20296;-37
2021/05/21 05:31:33;;;;;;;;;;;;;;;16.37;53.92;99347.28;5090497;28;19916;-37
2021/05/21 05:33:58;;;;;;;;;;;;;;;16.26;55.11;99348.22;5090161;28;20012;-38
2021/05/21 05:36:23;;;;;;;;;;;;;;;16.17;55.37;99347.03;5090102;28;19916;-37
2021/05/21 05:38:49;;;;;;;;;;;;;;;16.59;53.93;99351.81;5089480;28;19938;-46
2021/05/21 05:41:14;;;;;;;;;;;;;;;16.32;54.14;99352.59;5089374;28;19916;-38
2021/05/21 05:43:39;;;;;;;;;;;;;;;16.39;54.55;99350.53;5089616;28;20398;-38
2021/05/21 05:46:04;;;;;;;;;;;;;;;16.59;53.61;99351.81;5089315;28;20053;-37
2021/05/21 05:48:31;;;;;;;;;;;;;;;16.49;54.77;99359.75;5089148;28;20002;-37
2021/05/21 05:50:56;;;;;;;;;;;;;;;16.26;54.66;99336.66;5088863;28;20342;-38
2021/05/21 05:53:21;;;;;;;;;;;;;;;16.72;54.47;99375.59;5089079;28;20368;-38
2021/05/21 05:55:46;;;;;;;;;;;;;;;16.71;54.58;99373.16;5089400;28;19916;-38
2021/05/21 05:58:12;;;;;;;;;;;;;;;16.83;53.48;99373.88;5088966;28;19919;-37
2021/05/21 06:00:37;;;;;;;;;;;;;;;16.80;54.09;99375.13;5089407;28;19912;-37
2021/05/21 06:03:05;;;;;;;;;;;;;;;16.98;53.75;99371.31;5089333;28;19912;-37
2021/05/21 06:05:31;;;;;;;;;;;;;;;16.53;53.75;99368.94;5089050;28;19916;-36
2021/05/21 06:07:57;;;;;;;;;;;;;;;16.40;53.69;99365.56;5089347;28;19923;-37
2021/05/21 06:10:22;;;;;;;;;;;;;;;16.70;54.38;99383.09;5089362;28;19923;-38
2021/05/21 06:12:47;;;;;;;;;;;;;;;17.55;52.53;99375.28;5088927;28;20305;-38
2021/05/21 06:15:13;;;;;;;;;;;;;;;18.02;50.76;99389.06;5088829;28;20006;-37
2021/05/21 06:17:38;;;;;;;;;;;;;;;18.29;50.44;99387.00;5089705;28;19917;-37
2021/05/21 06:20:04;;;;;;;;;;;;;;;18.35;49.22;99383.28;5089374;28;19912;-37
2021/05/21 06:22:29;;;;;;;;;;;;;;;18.05;49.60;99386.66;5091302;28;20057;-37
2021/05/21 06:25:04;;;;;;;;;;;;;;;18.33;49.55;99395.38;5089430;28;19916;-38
2021/05/21 06:27:29;;;;;;;;;;;;;;;18.55;48.68;99387.94;5087490;28;19916;-37
2021/05/21 06:29:55;;;;;;;;;;;;;;;18.05;50.22;99380.44;5089480;28;20271;-37
2021/05/21 06:32:20;;;;;;;;;;;;;;;18.33;49.46;99396.22;5088465;28;19920;-37
2021/05/21 06:34:45;;;;;;;;;;;;;;;18.92;47.84;99386.16;5092939;28;19923;-38
2021/05/21 06:37:11;;;;;;;;;;;;;;;19.02;47.92;99382.66;5091636;28;19924;-38
2021/05/21 06:39:36;;;;;;;;;;;;;;;19.68;46.27;99392.66;5093020;28;19923;-38
2021/05/21 06:42:01;;;;;;;;;;;;;;;20.13;45.70;99387.47;5093163;28;20264;-35
2021/05/21 06:44:27;;;;;;;;;;;;;;;20.29;45.26;99395.22;5093367;28;19931;-38
2021/05/21 06:46:57;;;;;;;;;;;;;;;19.60;46.58;99391.31;5092979;28;20272;-53
2021/05/21 06:49:22;;;;;;;;;;;;;;;19.98;46.25;99399.13;5095206;28;19984;-52
2021/05/21 06:51:47;;;;;;;;;;;;;;;19.67;46.19;99393.75;5097818;28;20280;-52
2021/05/21 06:54:13;;;;;;;;;;;;;;;19.79;46.21;99397.00;5103439;28;20371;-52
2021/05/21 06:56:39;;;;;;;;;;;;;;;20.39;45.22;99404.38;5102886;28;19927;-37
2021/05/21 06:59:04;;;;;;;;;;;;;;;21.03;44.66;99403.53;5104203;28;19912;-38
2021/05/21 07:01:30;;;;;;;;;;;;;;;21.26;43.72;99403.91;5101496;28;19916;-38
2021/05/21 07:03:55;;;;;;;;;;;;;;;21.64;43.12;99409.56;5098371;28;19916;-37
2021/05/21 07:06:20;;;;;;;;;;;;;;;21.81;41.96;99401.81;5092641;28;19927;-51
2021/05/21 07:08:46;;;;;;;;;;;;;;;22.64;41.51;99407.16;5092573;28;19912;-50
2021/05/21 07:11:11;;;;;;;;;;;;;;;22.45;40.44;99402.50;5092112;28;19924;-53
2021/05/21 07:13:36;;;;;;;;;;;;;;;22.50;40.95;99404.31;5091643;28;19931;-52
2021/05/21 07:16:02;;;;;;;;;;;;;;;22.84;40.37;99406.84;5092641;28;19915;-51
2021/05/21 07:18:27;;;;;;;;;;;;;;;22.29;41.16;99414.63;5095202;28;19951;-53
2021/05/21 07:20:53;;;;;;;;;;;;;;;22.01;41.02;99408.16;5092662;28;19912;-51
2021/05/21 07:23:19;;;;;;;;;;;;;;;21.92;41.35;99407.94;5096073;28;20372;-51
2021/05/21 07:25:44;;;;;;;;;;;;;;;22.24;40.61;99404.63;5108809;28;19922;-53
2021/05/21 07:28:10;;;;;;;;;;;;;;;22.42;40.19;99404.97;5094497;28;19926;-53
2021/05/21 07:30:35;;;;;;;;;;;;;;;23.03;40.52;99419.66;5105434;27;19912;-52
2021/05/21 07:33:00;;;;;;;;;;;;;;;22.39;40.07;99387.41;5102692;28;19920;-52
2021/05/21 07:35:26;;;;;;;;;;;;;;;22.22;40.41;99422.28;5097941;28;19999;-50
2021/05/21 07:37:51;;;;;;;;;;;;;;;22.30;39.29;99418.16;5108741;28;20010;-50
2021/05/21 07:40:18;;;;;;;;;;;;;;;23.03;39.19;99423.16;5096237;28;19958;-49
2021/05/21 07:42:43;;;;;;;;;;;;;;;23.40;38.56;99420.72;5104095;28;19924;-53
2021/05/21 07:45:09;;;;;;;;;;;;;;;23.64;37.46;99414.34;5091210;28;19912;-50
2021/05/21 07:47:34;;;;;;;;;;;;;;;24.01;36.56;99413.44;5091882;28;19955;-52
2021/05/21 07:50:00;;;;;;;;;;;;;;;24.28;36.78;99411.84;5108721;28;19912;-52
2021/05/21 07:52:25;;;;;;;;;;;;;;;24.47;35.83;99422.59;5097382;28;19919;-51
2021/05/21 07:54:50;;;;;;;;;;;;;;;23.17;36.64;99427.84;5102710;28;20275;-52
2021/05/21 07:57:15;;;;;;;;;;;;;;;23.44;37.20;99424.44;5104485;28;19961;-53
2021/05/21 07:59:41;;;;;;;;;;;;;;;23.97;36.91;99426.00;5095811;28;19916;-52
2021/05/21 08:02:06;;;;;;;;;;;;;;;23.09;36.92;99432.03;5108483;28;19923;-51
2021/05/21 08:04:32;;;;;;;;;;;;;;;23.49;36.57;99434.41;5095156;28;19923;-50
2021/05/21 08:06:57;;;;;;;;;;;;;;;23.17;36.39;99431.38;5101289;28;20026;-51
2021/05/21 08:09:22;;;;;;;;;;;;;;;22.57;37.69;99448.16;5098199;28;19969;-52
2021/05/21 08:11:48;;;;;;;;;;;;;;;22.54;37.54;99446.06;5107742;28;20390;-53
2021/05/21 08:14:13;;;;;;;;;;;;;;;22.89;37.50;99454.00;5094490;28;20002;-51
2021/05/21 08:16:39;;;;;;;;;;;;;;;22.62;38.17;99458.97;5104204;28;19923;-52
2021/05/21 08:19:04;;;;;;;;;;;;;;;22.43;40.13;99471.66;5100786;28;19993;-51
2021/05/21 08:21:30;;;;;;;;;;;;;;;21.91;42.62;99481.38;5096878;28;19940;-52
2021/05/21 08:23:55;;;;;;;;;;;;;;;22.15;42.29;99476.78;5097052;28;20068;-51
2021/05/21 08:26:25;;;;;;;;;;;;;;;22.49;42.54;99492.19;5106051;28;19916;-53
2021/05/21 08:28:52;;;;;;;;;;;;;;;22.20;42.29;99489.47;5100052;28;20344;-49
2021/05/21 08:31:17;;;;;;;;;;;;;;;22.24;43.02;99496.75;5097358;28;20325;-49
2021/05/21 08:33:45;;;;;;;;;;;;;;;22.49;42.35;99505.75;5097773;28;20070;-51
2021/05/21 08:36:11;;;;;;;;;;;;;;;22.94;41.56;99516.31;5077769;28;19935;-53
2021/05/21 08:38:37;;;;;;;;;;;;;;;23.07;42.05;99510.22;5104103;28;19912;-53
2021/05/21 08:41:02;;;;;;;;;;;;;;;22.99;42.69;99522.50;5101889;28;19967;-50
2021/05/21 08:43:29;;;;;;;;;;;;;;;22.16;43.10;99501.97;5095274;28;19912;-50
2021/05/21 08:45:55;;;;;;;;;;;;;;;22.53;41.90;99533.09;5107413;28;19916;-53
2021/05/21 08:48:20;;;;;;;;;;;;;;;22.59;42.75;99537.38;5095441;28;20082;-52
2021/05/21 08:50:48;;;;;;;;;;;;;;;22.76;42.82;99536.91;5096671;28;19939;-53
2021/05/21 08:53:13;;;;;;;;;;;;;;;22.94;42.21;99547.00;5110660;28;19959;-53
2021/05/21 08:55:39;;;;;;;;;;;;;;;23.21;41.62;99549.13;5093202;28;20400;-50
2021/05/21 08:58:08;;;;;;;;;;;;;;;23.33;41.11;99553.31;5107357;28;20014;-52
2021/05/21 09:00:34;;;;;;;;;;;;;;;23.48;41.20;99546.84;5097299;28;19955;-52
2021/05/21 09:03:15;;;;;;;;;;;;;;;23.77;41.31;99552.09;5099783;28;20426;-52
2021/05/21 09:05:40;;;;;;;;;;;;;;;24.12;40.32;99539.06;5090383;28;20390;-50
2021/05/21 09:08:05;;;;;;;;;;;;;;;24.21;39.16;99545.44;5072051;28;19912;-51
2021/05/21 09:10:31;;;;;;;;;;;;;;;24.51;39.23;99535.94;5090404;28;20294;-49
2021/05/21 09:12:56;;;;;;;;;;;;;;;24.68;38.30;99521.75;5090615;28;19935;-51
2021/05/21 09:15:22;;;;;;;;;;;;;;;25.00;37.65;99538.22;5089767;28;19920;-52
2021/05/21 09:18:00;;;;;;;;;;;;;;;25.33;36.31;99538.91;5089901;28;19968;-48
2021/05/21 09:20:32;;;;;;;;;;;;;;;25.24;36.81;99541.53;5089761;28;20367;-51
2021/05/21 09:23:18;;;;;;;;;;;;;;;25.26;36.97;99542.03;5095815;28;19912;-53
2021/05/21 09:25:44;;;;;;;;;;;;;;;25.58;33.11;99540.25;5110072;28;20209;-53
2021/05/21 09:28:28;;;;;;;;;;;;;;;25.28;35.44;99537.09;5109209;28;19939;-52
2021/05/21 09:31:05;;;;;;;;;;;;;;;25.66;36.23;99530.53;5098462;28;19912;-51
2021/05/21 09:33:34;;;;;;;;;;;;;;;25.37;37.61;99529.00;5089360;28;19924;-53
2021/05/21 09:35:59;;;;;;;;;;;;;;;25.52;36.56;99516.97;5097473;28;19938;-50
2021/05/21 09:38:25;;;;;;;;;;;;;;;25.29;35.37;99533.28;5088797;28;20376;-52
2021/05/21 09:40:50;;;;;;;;;;;;;;;25.32;35.36;99534.56;5107247;28;19916;-51
2021/05/21 09:43:15;;;;;;;;;;;;;;;25.21;33.96;99530.44;5097570;28;20363;-49
2021/05/21 09:45:41;;;;;;;;;;;;;;;25.55;38.20;99541.69;5098806;28;19916;-49
2021/05/21 09:48:07;;;;;;;;;;;;;;;25.39;38.26;99551.31;5104567;28;20417;-51
2021/05/21 09:50:32;;;;;;;;;;;;;;;25.35;38.31;99547.59;5093694;28;20319;-51
2021/05/21 09:53:17;;;;;;;;;;;;;;;25.27;37.86;99545.59;5106180;28;20011;-49
2021/05/21 09:55:55;;;;;;;;;;;;;;;25.73;37.41;99558.94;5100582;28;20306;-50
2021/05/21 09:58:23;;;;;;;;;;;;;;;25.88;37.32;99557.78;5094388;28;19920;-51
2021/05/21 10:01:07;;;;;;;;;;;;;;;26.11;35.97;99552.34;5106883;28;20010;-48
2021/05/21 10:03:33;;;;;;;;;;;;;;;26.03;35.06;99559.38;5099610;28;19918;-51
2021/05/21 10:05:58;;;;;;;;;;;;;;;24.20;33.07;99558.22;5108544;28;19963;-51
2021/05/21 10:08:23;;;;;;;;;;;;;;;25.10;32.62;99557.09;5096611;28;19992;-51
2021/05/21 10:10:48;;;;;;;;;;;;;;;25.39;31.68;99548.56;5103173;28;19912;-51
2021/05/21 10:13:14;;;;;;;;;;;;;;;25.81;31.83;99541.06;5101458;28;19988;-51
2021/05/21 10:15:39;;;;;;;;;;;;;;;24.93;30.04;99542.19;5104366;28;19959;-52
2021/05/21 10:18:05;;;;;;;;;;;;;;;24.98;31.55;99549.44;5108221;28;19960;-51
2021/05/21 10:20:30;;;;;;;;;;;;;;;24.35;31.32;99553.59;5114559;28;20322;-51
2021/05/21 10:22:55;;;;;;;;;;;;;;;24.63;30.97;99559.13;5107323;28;19912;-49
2021/05/21 10:25:21;;;;;;;;;;;;;;;24.82;32.30;99559.03;5094075;28;19916;-49
2021/05/21 10:27:50;;;;;;;;;;;;;;;24.75;31.21;99562.13;5094190;28;19912;-49
2021/05/21 10:30:15;;;;;;;;;;;;;;;24.65;31.33;99568.56;5093677;28;19920;-50
2021/05/21 10:32:41;;;;;;;;;;;;;;;24.86;31.79;99557.28;5092435;28;19920;-51
2021/05/21 10:35:17;;;;;;;;;;;;;;;24.78;31.05;99559.63;5093693;28;19978;-52
2021/05/21 10:37:42;;;;;;;;;;;;;;;24.12;32.08;99571.69;5092517;28;20390;-52
2021/05/21 10:40:09;;;;;;;;;;;;;;;23.54;32.99;99584.50;5092624;28;19966;-51
2021/05/21 10:42:38;;;;;;;;;;;;;;;23.16;32.89;99572.81;5089811;28;19923;-51
2021/05/21 10:45:22;;;;;;;;;;;;;;;23.09;33.01;99580.47;5090013;28;20065;-52
2021/05/21 10:47:57;;;;;;;;;;;;;;;23.04;33.13;99581.38;5089893;28;19927;-48
2021/05/21 10:50:22;;;;;;;;;;;;;;;23.64;32.18;99583.53;5090360;28;19924;-51
2021/05/21 10:52:50;;;;;;;;;;;;;;;23.09;32.65;99591.34;5096715;28;19923;-49
2021/05/21 10:55:17;;;;;;;;;;;;;;;22.94;33.51;99584.97;5097235;28;19916;-51
2021/05/21 10:57:56;;;;;;;;;;;;;;;23.34;32.76;99588.31;5106662;28;19924;-50
2021/05/21 11:00:21;;;;;;;;;;;;;;;23.11;33.27;99587.22;5101567;28;19920;-50
2021/05/21 11:02:48;;;;;;;;;;;;;;;23.15;32.52;99584.75;5094293;28;19988;-50
2021/05/21 11:05:23;;;;;;;;;;;;;;;23.60;32.96;99596.09;5092702;28;19924;-51
2021/05/21 11:07:53;;;;;;;;;;;;;;;23.66;33.02;99586.75;5092834;28;20291;-49
2021/05/21 11:10:33;;;;;;;;;;;;;;;23.67;32.69;99582.94;5093330;28;19923;-52
2021/05/21 11:13:07;;;;;;;;;;;;;;;23.97;33.48;99589.03;5093318;28;20340;-53
2021/05/21 11:15:32;;;;;;;;;;;;;;;24.06;32.83;99589.97;5092381;28;19920;-51
2021/05/21 11:18:10;;;;;;;;;;;;;;;24.71;31.65;99591.06;5092192;28;19919;-52
2021/05/21 11:20:54;;;;;;;;;;;;;;;24.66;32.19;99602.84;5090870;28;19969;-51
2021/05/21 11:23:42;;;;;;;;;;;;;;;25.17;30.89;99601.03;5092860;28;19916;-37
2021/05/21 11:26:14;;;;;;;;;;;;;;;24.95;30.94;99593.59;5086374;28;20011;-38
2021/05/21 11:28:40;;;;;;;;;;;;;;;24.43;31.75;99598.31;5092306;28;20282;-37
2021/05/21 11:31:09;;;;;;;;;;;;;;;24.59;30.57;99595.06;5092246;28;20080;-38
2021/05/21 11:33:34;;;;;;;;;;;;;;;23.66;33.13;99600.34;5092291;28;20066;-38
2021/05/21 11:36:00;;;;;;;;;;;;;;;23.56;32.28;99603.22;5090147;28;20477;-38
2021/05/21 11:38:25;;;;;;;;;;;;;;;23.30;32.66;99603.53;5091759;28;19947;-38
2021/05/21 11:40:50;;;;;;;;;;;;;;;23.62;32.11;99602.84;5092045;28;19913;-38
2021/05/21 11:43:20;;;;;;;;;;;;;;;23.93;31.17;99604.31;5091678;28;20271;-38
2021/05/21 11:45:47;;;;;;;;;;;;;;;23.93;31.68;99607.03;5091672;28;19920;-38
2021/05/21 11:48:13;;;;;;;;;;;;;;;24.29;30.80;99609.97;5090511;28;19916;-38
2021/05/21 11:50:38;;;;;;;;;;;;;;;23.59;30.97;99619.72;5090690;28;19912;-39
2021/05/21 11:53:10;;;;;;;;;;;;;;;22.75;32.61;99622.91;5090882;28;19912;-38
2021/05/21 11:55:35;;;;;;;;;;;;;;;22.64;32.98;99622.19;5091606;28;19998;-38
2021/05/21 11:58:01;;;;;;;;;;;;;;;23.10;32.32;99617.38;5090358;28;19999;-38
2021/05/21 12:00:26;;;;;;;;;;;;;;;24.04;32.00;99622.09;5091506;28;19923;-36
2021/05/21 12:02:51;;;;;;;;;;;;;;;23.99;31.03;99617.53;5092065;28;19927;-38
2021/05/21 12:05:17;;;;;;;;;;;;;;;24.65;31.02;99619.47;5091545;28;19912;-38
2021/05/21 12:07:42;;;;;;;;;;;;;;;24.89;30.67;99614.66;5091162;28;19919;-38
2021/05/21 12:10:07;;;;;;;;;;;;;;;24.26;30.61;99615.22;5091470;28;20331;-38
2021/05/21 12:12:33;;;;;;;;;;;;;;;24.17;30.63;99615.88;5091317;28;20010;-38
2021/05/21 12:15:08;;;;;;;;;;;;;;;24.50;30.59;99623.22;5091215;28;19928;-37
2021/05/21 12:17:43;;;;;;;;;;;;;;;24.78;30.36;99616.75;5091467;28;20317;-38
2021/05/21 12:20:09;;;;;;;;;;;;;;;23.63;31.29;99622.66;5091297;28;19942;-38
2021/05/21 12:22:34;;;;;;;;;;;;;;;24.48;31.23;99618.09;5091516;28;20006;-38
2021/05/21 12:25:02;;;;;;;;;;;;;;;25.15;30.27;99616.84;5092042;28;20383;-38
2021/05/21 12:27:28;;;;;;;;;;;;;;;24.73;30.68;99630.47;5091757;28;19918;-49
2021/05/21 12:29:53;;;;;;;;;;;;;;;24.94;31.10;99624.63;5090821;28;19935;-52
2021/05/21 12:32:18;;;;;;;;;;;;;;;25.47;29.36;99623.31;5090169;28;19912;-50
2021/05/21 12:34:44;;;;;;;;;;;;;;;25.32;29.93;99625.25;5090786;28;20303;-38
2021/05/21 12:37:09;;;;;;;;;;;;;;;24.80;29.56;99631.97;5089334;28;19999;-38
2021/05/21 12:39:38;;;;;;;;;;;;;;;25.41;29.49;99625.34;5090830;28;20312;-38
2021/05/21 12:42:04;;;;;;;;;;;;;;;25.50;29.41;99634.41;5090682;28;19912;-38
2021/05/21 12:44:29;;;;;;;;;;;;;;;26.19;29.15;99641.56;5090980;28;19912;-38